CheckWX is a tool to help pilots better visualize weather data.  It is not intended as a substitute for an official pre-flight weather briefing.

18:02:51 UTC

KBMG TAF
Monroe County Airport
Bloomington, Indiana, USA
KBMG 181720Z 1818/1918 22006KT P6SM SCT250 FM190100 VRB04KT P6SM SKC FM191400 23006KT P6SM FEW080

Jul-18@
18:00 UTC

Jul-18 @ 18:00 UTC

Jul-19@
01:00 UTC

Jul-19 @ 01:00 UTC

KBMG 181720Z 1818/1918 22006KT P6SM SCT250
Wind
  • 220° at 6 KTS
Cloud Levels
  • Scattered at 25,000' AGL

Jul-19@
01:00 UTC

Jul-19 @ 01:00 UTC

Jul-19@
14:00 UTC

Jul-19 @ 14:00 UTC

FM190100 VRB04KT P6SM SKC

From

From Standard forecast or significant change

Wind
  • Variable at 4 KTS
Cloud Levels
  • Clear skies

Jul-19@
14:00 UTC

Jul-19 @ 14:00 UTC

Jul-19@
18:00 UTC

Jul-19 @ 18:00 UTC

FM191400 23006KT P6SM FEW080

From

From Standard forecast or significant change

Wind
  • 230° at 6 KTS
Cloud Levels
  • Few at 8,000' AGL